Time;durP1;ratioP1;P1;durP2;ratioP2;P2;SDS_P1;SDS_P2;PMS_P1;PMS_P2;Temp;Humidity;BMP_temperature;BMP_pressure;BME280_temperature;BME280_humidity;BME280_pressure;Samples;Min_cycle;Max_cycle;Signal;HPM_P1;HPM_P2
2021/09/10 00:00:44;;;;;;;7.88;6.85;;;;;;;;;;5075770;28;20258;-48
2021/09/10 00:03:10;;;;;;;8.00;6.68;;;;;;;;;;5074923;28;20166;-48
2021/09/10 00:05:36;;;;;;;8.43;7.32;;;;;;;;;;5094056;28;20189;-48
2021/09/10 00:08:02;;;;;;;7.70;7.00;;;;;;;;;;5094287;28;20583;-48
2021/09/10 00:10:31;;;;;;;8.35;7.10;;;;;;;;;;5095153;28;20445;-49
2021/09/10 00:12:57;;;;;;;8.10;7.30;;;;;;;;;;5094970;28;20169;-48
2021/09/10 00:15:23;;;;;;;7.78;6.80;;;;;;;;;;5090320;28;20508;-48
2021/09/10 00:17:49;;;;;;;9.70;7.47;;;;;;;;;;5094153;28;20198;-48
2021/09/10 00:20:15;;;;;;;7.35;6.53;;;;;;;;;;5094383;28;20170;-48
2021/09/10 00:22:41;;;;;;;8.15;7.35;;;;;;;;;;5094897;28;20310;-48
2021/09/10 00:25:07;;;;;;;8.60;7.55;;;;;;;;;;5092477;28;20264;-48
2021/09/10 00:27:33;;;;;;;7.47;6.70;;;;;;;;;;5094338;28;20173;-48
2021/09/10 00:29:59;;;;;;;7.82;7.13;;;;;;;;;;5087981;28;20178;-48
2021/09/10 00:32:25;;;;;;;9.70;7.20;;;;;;;;;;5094738;28;20529;-48
2021/09/10 00:34:51;;;;;;;7.75;7.05;;;;;;;;;;5092083;28;20182;-48
2021/09/10 00:37:17;;;;;;;8.07;6.75;;;;;;;;;;5093828;28;20464;-48
2021/09/10 00:39:43;;;;;;;8.10;7.30;;;;;;;;;;5088765;28;20266;-48
2021/09/10 00:42:09;;;;;;;8.15;7.35;;;;;;;;;;5094143;28;20234;-48
2021/09/10 00:44:35;;;;;;;8.05;6.90;;;;;;;;;;5091608;28;20169;-48
2021/09/10 00:47:01;;;;;;;8.10;7.30;;;;;;;;;;5094109;28;20185;-48
2021/09/10 00:49:27;;;;;;;8.15;7.35;;;;;;;;;;5083767;28;20510;-48
2021/09/10 00:51:53;;;;;;;8.63;7.35;;;;;;;;;;5074273;28;20228;-48
2021/09/10 00:54:19;;;;;;;7.18;6.57;;;;;;;;;;5082903;28;20200;-48
2021/09/10 00:56:45;;;;;;;8.90;8.00;;;;;;;;;;5094918;28;20228;-48
2021/09/10 00:59:11;;;;;;;7.95;7.25;;;;;;;;;;5092809;28;20174;-48
2021/09/10 01:01:37;;;;;;;8.27;7.38;;;;;;;;;;5094554;28;20488;-48
2021/09/10 01:04:03;;;;;;;8.82;7.25;;;;;;;;;;5092562;28;20403;-48
2021/09/10 01:06:29;;;;;;;7.93;6.57;;;;;;;;;;5094474;28;20166;-48
2021/09/10 01:08:56;;;;;;;7.35;6.57;;;;;;;;;;5076306;28;20232;-48
2021/09/10 01:11:22;;;;;;;7.78;7.07;;;;;;;;;;5094357;28;20556;-47
2021/09/10 01:13:50;;;;;;;7.40;6.70;;;;;;;;;;5087058;28;20259;-48
2021/09/10 01:16:16;;;;;;;8.98;7.32;;;;;;;;;;5093668;28;20215;-48
2021/09/10 01:18:42;;;;;;;8.23;7.43;;;;;;;;;;5093643;28;20176;-48
2021/09/10 01:21:08;;;;;;;8.15;7.40;;;;;;;;;;5094406;28;20166;-48
2021/09/10 01:23:34;;;;;;;10.73;7.57;;;;;;;;;;5093263;28;20185;-48
2021/09/10 01:26:00;;;;;;;7.82;7.03;;;;;;;;;;5093890;28;20196;-48
2021/09/10 01:28:26;;;;;;;8.18;7.20;;;;;;;;;;5093067;28;20178;-48
2021/09/10 01:30:52;;;;;;;7.80;7.10;;;;;;;;;;5094227;28;20534;-48
2021/09/10 01:33:18;;;;;;;7.85;7.10;;;;;;;;;;5093673;28;20223;-47
2021/09/10 01:35:44;;;;;;;8.30;7.35;;;;;;;;;;5091054;28;20572;-48
2021/09/10 01:38:10;;;;;;;8.48;7.68;;;;;;;;;;5090466;28;20497;-48
2021/09/10 01:40:38;;;;;;;8.07;7.28;;;;;;;;;;5086772;28;20572;-48
2021/09/10 01:43:05;;;;;;;8.13;7.32;;;;;;;;;;5093384;28;20194;-48
2021/09/10 01:45:31;;;;;;;7.53;6.82;;;;;;;;;;5088731;28;20260;-47
2021/09/10 01:47:57;;;;;;;8.27;7.30;;;;;;;;;;5095964;28;20175;-48
2021/09/10 01:50:25;;;;;;;8.00;7.20;;;;;;;;;;5097456;28;20178;-48
2021/09/10 01:52:52;;;;;;;9.13;7.50;;;;;;;;;;5095597;28;20161;-48
2021/09/10 01:55:18;;;;;;;8.13;7.18;;;;;;;;;;5086270;28;20530;-48
2021/09/10 01:57:46;;;;;;;8.10;7.30;;;;;;;;;;5091272;28;20258;-48
2021/09/10 02:00:12;;;;;;;7.43;6.72;;;;;;;;;;5080653;28;20265;-48
2021/09/10 02:02:39;;;;;;;8.30;7.50;;;;;;;;;;5076963;28;20999;-48
2021/09/10 02:05:05;;;;;;;7.90;7.20;;;;;;;;;;5088106;28;20173;-48
2021/09/10 02:07:31;;;;;;;8.35;7.57;;;;;;;;;;5082462;28;20235;-48
2021/09/10 02:09:57;;;;;;;8.07;7.25;;;;;;;;;;5096802;28;20186;-47
2021/09/10 02:12:23;;;;;;;8.18;7.38;;;;;;;;;;5097106;28;20170;-48
2021/09/10 02:14:49;;;;;;;7.93;6.95;;;;;;;;;;5087437;28;20186;-48
2021/09/10 02:17:15;;;;;;;8.98;6.95;;;;;;;;;;5094309;28;20265;-48
2021/09/10 02:19:41;;;;;;;8.00;7.18;;;;;;;;;;5095522;28;20548;-48
2021/09/10 02:22:07;;;;;;;8.30;7.50;;;;;;;;;;5094870;28;20277;-48
2021/09/10 02:24:33;;;;;;;7.85;7.05;;;;;;;;;;5095672;28;20738;-48
2021/09/10 02:26:59;;;;;;;7.80;6.88;;;;;;;;;;5095812;28;20186;-48
2021/09/10 02:29:25;;;;;;;8.65;7.72;;;;;;;;;;5086699;28;20193;-48
2021/09/10 02:31:51;;;;;;;10.07;7.22;;;;;;;;;;5077759;28;20175;-48
2021/09/10 02:34:18;;;;;;;8.15;7.35;;;;;;;;;;5088348;28;20187;-48
2021/09/10 02:36:44;;;;;;;7.95;7.15;;;;;;;;;;5095973;28;20197;-48
2021/09/10 02:39:11;;;;;;;8.13;7.35;;;;;;;;;;5088616;28;20182;-48
2021/09/10 02:41:38;;;;;;;8.13;7.15;;;;;;;;;;5096736;28;20181;-48
2021/09/10 02:44:05;;;;;;;8.68;7.70;;;;;;;;;;5089129;28;20190;-48
2021/09/10 02:46:31;;;;;;;7.90;7.20;;;;;;;;;;5092070;28;20177;-48
2021/09/10 02:48:57;;;;;;;7.78;7.03;;;;;;;;;;5089897;28;20263;-48
2021/09/10 02:51:23;;;;;;;7.75;6.95;;;;;;;;;;5076615;28;20167;-48
2021/09/10 02:53:49;;;;;;;7.78;7.07;;;;;;;;;;5095280;28;20661;-47
2021/09/10 02:56:15;;;;;;;7.78;7.03;;;;;;;;;;5095736;28;20205;-48
2021/09/10 02:58:41;;;;;;;7.35;6.65;;;;;;;;;;5094344;28;20186;-48
2021/09/10 03:01:07;;;;;;;7.90;7.10;;;;;;;;;;5095976;28;20198;-48
2021/09/10 03:03:33;;;;;;;8.35;7.57;;;;;;;;;;5095878;28;20166;-47
2021/09/10 03:05:59;;;;;;;7.80;7.10;;;;;;;;;;5091452;28;20580;-48
2021/09/10 03:08:25;;;;;;;7.60;6.88;;;;;;;;;;5078797;28;20178;-48
2021/09/10 03:10:51;;;;;;;8.60;7.43;;;;;;;;;;5075928;28;20177;-48
2021/09/10 03:13:17;;;;;;;8.48;7.68;;;;;;;;;;5081312;28;20174;-48
2021/09/10 03:15:43;;;;;;;7.78;7.07;;;;;;;;;;5093301;28;20178;-48
2021/09/10 03:18:09;;;;;;;9.50;6.70;;;;;;;;;;5075015;28;20237;-48
2021/09/10 03:20:35;;;;;;;8.02;7.22;;;;;;;;;;5084258;28;20162;-48
2021/09/10 03:23:01;;;;;;;7.55;6.85;;;;;;;;;;5095361;28;20449;-48
2021/09/10 03:25:27;;;;;;;8.02;7.22;;;;;;;;;;5095272;28;20213;-47
2021/09/10 03:27:53;;;;;;;7.53;6.72;;;;;;;;;;5078410;28;20182;-48
2021/09/10 03:30:20;;;;;;;7.65;6.65;;;;;;;;;;5095783;28;20170;-48
2021/09/10 03:32:46;;;;;;;9.20;7.18;;;;;;;;;;5094921;28;20200;-48
2021/09/10 03:35:12;;;;;;;8.77;6.70;;;;;;;;;;5086512;28;20210;-48
2021/09/10 03:37:38;;;;;;;9.30;7.25;;;;;;;;;;5091607;28;20288;-48
2021/09/10 03:40:05;;;;;;;7.15;6.45;;;;;;;;;;5088542;28;20600;-48
2021/09/10 03:42:31;;;;;;;7.88;7.07;;;;;;;;;;5095196;28;20186;-48
2021/09/10 03:44:58;;;;;;;8.43;7.03;;;;;;;;;;5094318;28;20186;-48
2021/09/10 03:47:24;;;;;;;7.50;6.70;;;;;;;;;;5079275;28;20461;-48
2021/09/10 03:49:50;;;;;;;7.90;7.10;;;;;;;;;;5074931;28;20190;-47
2021/09/10 03:52:16;;;;;;;8.15;7.20;;;;;;;;;;5075415;28;20247;-48
2021/09/10 03:54:42;;;;;;;7.30;6.60;;;;;;;;;;5079128;28;20197;-47
2021/09/10 03:57:07;;;;;;;7.57;6.88;;;;;;;;;;5088170;28;20205;-47
2021/09/10 03:59:34;;;;;;;10.63;7.88;;;;;;;;;;5094906;28;20169;-47
2021/09/10 04:02:00;;;;;;;13.63;7.60;;;;;;;;;;5094990;28;20595;-46
2021/09/10 04:04:25;;;;;;;13.85;8.02;;;;;;;;;;5094457;28;20177;-47
2021/09/10 04:06:51;;;;;;;17.02;7.95;;;;;;;;;;5084150;28;20853;-46
2021/09/10 04:09:17;;;;;;;17.45;8.73;;;;;;;;;;5074004;28;20182;-47
2021/09/10 04:11:43;;;;;;;18.30;7.47;;;;;;;;;;5074910;28;20279;-47
2021/09/10 04:14:10;;;;;;;14.23;7.80;;;;;;;;;;5085647;28;20177;-46
2021/09/10 04:16:36;;;;;;;12.05;8.07;;;;;;;;;;5093980;28;20174;-46
2021/09/10 04:19:03;;;;;;;14.40;8.15;;;;;;;;;;5093105;28;20250;-47
2021/09/10 04:21:29;;;;;;;11.30;6.97;;;;;;;;;;5093031;28;20197;-46
2021/09/10 04:23:55;;;;;;;11.75;7.45;;;;;;;;;;5085463;28;20561;-47
2021/09/10 04:26:21;;;;;;;8.93;7.05;;;;;;;;;;5088249;28;20182;-47
2021/09/10 04:28:48;;;;;;;10.82;6.93;;;;;;;;;;5074126;28;20224;-46
2021/09/10 04:31:14;;;;;;;11.68;7.40;;;;;;;;;;5074567;28;20251;-46
2021/09/10 04:33:41;;;;;;;9.38;7.05;;;;;;;;;;5080795;28;20257;-47
2021/09/10 04:36:07;;;;;;;10.65;7.90;;;;;;;;;;5094275;28;20209;-47
2021/09/10 04:38:33;;;;;;;9.57;7.30;;;;;;;;;;5093057;28;20500;-47
2021/09/10 04:40:59;;;;;;;9.85;7.22;;;;;;;;;;5091476;28;20261;-46
2021/09/10 04:43:24;;;;;;;10.57;7.32;;;;;;;;;;5075455;28;20194;-47
2021/09/10 04:45:51;;;;;;;9.00;7.70;;;;;;;;;;5079190;28;20182;-47
2021/09/10 04:48:17;;;;;;;11.18;7.28;;;;;;;;;;5093934;28;20277;-47
2021/09/10 04:50:43;;;;;;;9.48;7.05;;;;;;;;;;5094599;28;20869;-47
2021/09/10 04:53:09;;;;;;;7.93;6.35;;;;;;;;;;5093687;28;20280;-47
2021/09/10 04:55:35;;;;;;;8.27;6.70;;;;;;;;;;5094580;28;20177;-47
2021/09/10 04:58:01;;;;;;;8.05;7.00;;;;;;;;;;5074557;28;20206;-46
2021/09/10 05:00:27;;;;;;;9.68;7.20;;;;;;;;;;5092061;28;20255;-46
2021/09/10 05:02:53;;;;;;;10.85;7.00;;;;;;;;;;5094071;28;20533;-46
2021/09/10 05:05:19;;;;;;;10.35;7.63;;;;;;;;;;5083405;28;20232;-47
2021/09/10 05:07:45;;;;;;;8.95;7.18;;;;;;;;;;5088396;28;20207;-47
2021/09/10 05:10:11;;;;;;;10.05;7.35;;;;;;;;;;5093307;28;20181;-47
2021/09/10 05:12:37;;;;;;;7.22;6.25;;;;;;;;;;5094188;28;20185;-46
2021/09/10 05:15:03;;;;;;;9.43;6.57;;;;;;;;;;5092370;28;20235;-46
2021/09/10 05:17:29;;;;;;;10.15;6.53;;;;;;;;;;5091498;28;20201;-47
2021/09/10 05:19:57;;;;;;;7.32;6.43;;;;;;;;;;5094000;28;20182;-47
2021/09/10 05:22:23;;;;;;;8.55;6.60;;;;;;;;;;5096049;28;20522;-47
2021/09/10 05:24:49;;;;;;;11.30;7.20;;;;;;;;;;5084343;28;20266;-47
2021/09/10 05:27:15;;;;;;;10.85;7.10;;;;;;;;;;5088441;28;20533;-46
2021/09/10 05:29:41;;;;;;;7.32;6.63;;;;;;;;;;5098115;28;20181;-47
2021/09/10 05:32:07;;;;;;;7.82;7.00;;;;;;;;;;5097388;28;20223;-47
2021/09/10 05:34:33;;;;;;;9.75;6.97;;;;;;;;;;5090139;28;20181;-46
2021/09/10 05:36:59;;;;;;;7.95;6.90;;;;;;;;;;5084206;28;20232;-47
2021/09/10 05:39:25;;;;;;;10.57;7.30;;;;;;;;;;5096706;28;20572;-47
2021/09/10 05:41:51;;;;;;;8.15;6.43;;;;;;;;;;5092259;28;20178;-47
2021/09/10 05:44:18;;;;;;;8.88;6.72;;;;;;;;;;5077497;28;20569;-47
2021/09/10 05:46:44;;;;;;;7.65;6.13;;;;;;;;;;5083918;28;20265;-47
2021/09/10 05:49:10;;;;;;;9.50;6.88;;;;;;;;;;5096654;28;20178;-47
2021/09/10 05:51:37;;;;;;;8.27;6.88;;;;;;;;;;5082422;28;20233;-46
2021/09/10 05:54:04;;;;;;;8.70;6.93;;;;;;;;;;5088556;28;20592;-47
2021/09/10 05:56:30;;;;;;;8.73;7.15;;;;;;;;;;5092171;28;20186;-47
2021/09/10 05:58:56;;;;;;;8.50;7.22;;;;;;;;;;5076595;28;20170;-46
2021/09/10 06:01:22;;;;;;;9.75;6.97;;;;;;;;;;5076847;28;20545;-46
2021/09/10 06:03:48;;;;;;;8.63;6.53;;;;;;;;;;5081659;28;20178;-47
2021/09/10 06:06:14;;;;;;;8.50;6.97;;;;;;;;;;5096407;28;20773;-46
2021/09/10 06:08:41;;;;;;;9.25;7.10;;;;;;;;;;5092305;28;20205;-47
2021/09/10 06:11:07;;;;;;;9.05;6.72;;;;;;;;;;5076836;28;20605;-47
2021/09/10 06:13:33;;;;;;;12.23;7.03;;;;;;;;;;5081448;28;20178;-47
2021/09/10 06:15:59;;;;;;;8.73;6.90;;;;;;;;;;5096846;28;20170;-47
2021/09/10 06:18:25;;;;;;;9.07;7.18;;;;;;;;;;5095688;28;20213;-47
2021/09/10 06:20:51;;;;;;;10.90;6.88;;;;;;;;;;5096985;28;20253;-47
2021/09/10 06:23:17;;;;;;;9.57;6.82;;;;;;;;;;5096866;28;20544;-46
2021/09/10 06:25:43;;;;;;;7.07;6.38;;;;;;;;;;5085517;28;20171;-46
2021/09/10 06:28:09;;;;;;;7.78;6.43;;;;;;;;;;5081792;28;20174;-46
2021/09/10 06:30:35;;;;;;;9.15;6.68;;;;;;;;;;5096690;28;20162;-47
2021/09/10 06:33:02;;;;;;;9.02;6.07;;;;;;;;;;5096147;28;20185;-47
2021/09/10 06:35:27;;;;;;;8.35;6.70;;;;;;;;;;5093979;28;20189;-47
2021/09/10 06:37:53;;;;;;;9.05;6.28;;;;;;;;;;5083890;28;20209;-47
2021/09/10 06:40:20;;;;;;;12.90;7.43;;;;;;;;;;5096462;28;20203;-47
2021/09/10 06:42:46;;;;;;;9.60;6.70;;;;;;;;;;5096670;28;20186;-47
2021/09/10 06:45:12;;;;;;;11.60;6.95;;;;;;;;;;5079471;28;20605;-47
2021/09/10 06:47:39;;;;;;;9.50;7.15;;;;;;;;;;5076558;28;20174;-47
2021/09/10 06:50:09;;;;;;;10.00;7.10;;;;;;;;;;5096270;28;20182;-47
2021/09/10 06:52:36;;;;;;;7.45;6.63;;;;;;;;;;5096518;28;20173;-47
2021/09/10 06:55:02;;;;;;;8.18;6.40;;;;;;;;;;5088340;28;20263;-47
2021/09/10 06:57:28;;;;;;;9.15;6.30;;;;;;;;;;5075321;28;20282;-47
2021/09/10 06:59:54;;;;;;;8.40;6.70;;;;;;;;;;5095347;28;20174;-47
2021/09/10 07:02:20;;;;;;;7.40;6.57;;;;;;;;;;5096083;28;20184;-47
2021/09/10 07:04:46;;;;;;;7.32;6.40;;;;;;;;;;5094836;28;20252;-47
2021/09/10 07:07:12;;;;;;;7.22;6.05;;;;;;;;;;5095522;28;20182;-47
2021/09/10 07:09:39;;;;;;;7.97;6.40;;;;;;;;;;5078389;28;20236;-47
2021/09/10 07:12:07;;;;;;;9.52;6.50;;;;;;;;;;5091672;28;20223;-47
2021/09/10 07:14:33;;;;;;;8.65;6.55;;;;;;;;;;5086145;28;20193;-46
2021/09/10 07:16:59;;;;;;;8.38;6.40;;;;;;;;;;5095533;28;20200;-46
2021/09/10 07:19:25;;;;;;;7.43;6.45;;;;;;;;;;5080229;28;20192;-47
2021/09/10 07:21:51;;;;;;;9.30;6.35;;;;;;;;;;5075675;28;20169;-47
2021/09/10 07:24:17;;;;;;;7.25;6.03;;;;;;;;;;5075670;28;20178;-47
2021/09/10 07:26:43;;;;;;;8.43;6.82;;;;;;;;;;5075174;28;20205;-47
2021/09/10 07:29:09;;;;;;;6.72;6.07;;;;;;;;;;5082024;28;20199;-47
2021/09/10 07:31:35;;;;;;;7.55;5.63;;;;;;;;;;5075463;28;20239;-47
2021/09/10 07:34:01;;;;;;;6.93;5.97;;;;;;;;;;5076543;28;20185;-47
2021/09/10 07:36:27;;;;;;;9.07;6.03;;;;;;;;;;5075285;28;20167;-47
2021/09/10 07:38:53;;;;;;;6.55;5.40;;;;;;;;;;5090942;28;20197;-47
2021/09/10 07:41:19;;;;;;;8.77;5.93;;;;;;;;;;5083162;28;20556;-47
2021/09/10 07:43:45;;;;;;;7.30;6.47;;;;;;;;;;5086368;28;20193;-47
2021/09/10 07:46:11;;;;;;;6.47;5.88;;;;;;;;;;5074608;28;20245;-47
2021/09/10 07:48:37;;;;;;;8.23;6.43;;;;;;;;;;5078659;28;20308;-47
2021/09/10 07:51:03;;;;;;;8.80;6.03;;;;;;;;;;5075110;28;20228;-46
2021/09/10 07:53:29;;;;;;;6.53;5.68;;;;;;;;;;5081511;28;20490;-47
2021/09/10 07:55:55;;;;;;;7.40;5.82;;;;;;;;;;5094857;28;20263;-48
2021/09/10 07:58:21;;;;;;;8.57;6.43;;;;;;;;;;5092588;28;20234;-46
2021/09/10 08:00:47;;;;;;;7.40;6.70;;;;;;;;;;5079745;28;20446;-46
2021/09/10 08:03:13;;;;;;;7.90;6.68;;;;;;;;;;5078697;28;20170;-47
2021/09/10 08:05:40;;;;;;;9.63;6.15;;;;;;;;;;5094716;28;20511;-47
2021/09/10 08:08:06;;;;;;;6.68;6.00;;;;;;;;;;5081851;28;20240;-47
2021/09/10 08:10:32;;;;;;;6.57;5.63;;;;;;;;;;5094252;28;20194;-47
2021/09/10 08:12:58;;;;;;;7.57;6.50;;;;;;;;;;5094750;28;20174;-46
2021/09/10 08:15:24;;;;;;;8.23;5.90;;;;;;;;;;5075683;28;20771;-47
2021/09/10 08:17:50;;;;;;;7.38;6.68;;;;;;;;;;5086331;28;20210;-47
2021/09/10 08:20:17;;;;;;;7.28;6.57;;;;;;;;;;5094803;28;20188;-47
2021/09/10 08:22:43;;;;;;;7.20;6.05;;;;;;;;;;5094859;28;20170;-47
2021/09/10 08:25:10;;;;;;;6.72;5.90;;;;;;;;;;5094253;28;20196;-47
2021/09/10 08:27:37;;;;;;;6.28;5.68;;;;;;;;;;5094035;28;20201;-47
2021/09/10 08:30:04;;;;;;;6.25;5.65;;;;;;;;;;5077709;28;20297;-47
2021/09/10 08:32:30;;;;;;;6.90;6.10;;;;;;;;;;5077338;28;20186;-47
2021/09/10 08:34:56;;;;;;;6.90;6.10;;;;;;;;;;5092768;28;20185;-47
2021/09/10 08:37:22;;;;;;;6.25;5.65;;;;;;;;;;5093923;28;20248;-47
2021/09/10 08:39:48;;;;;;;7.40;6.10;;;;;;;;;;5088853;28;20188;-47
2021/09/10 08:42:14;;;;;;;6.13;5.55;;;;;;;;;;5091394;28;20181;-47
2021/09/10 08:44:42;;;;;;;6.75;6.00;;;;;;;;;;5082068;28;20211;-46
2021/09/10 08:47:10;;;;;;;6.93;6.03;;;;;;;;;;5073937;28;20178;-47
2021/09/10 08:49:36;;;;;;;5.75;5.22;;;;;;;;;;5087197;28;20264;-47
2021/09/10 08:52:02;;;;;;;8.02;6.10;;;;;;;;;;5084109;28;20177;-46
2021/09/10 08:54:28;;;;;;;6.10;5.50;;;;;;;;;;5089231;28;20600;-47
2021/09/10 08:56:54;;;;;;;6.95;5.88;;;;;;;;;;5096732;28;20212;-47
2021/09/10 08:59:21;;;;;;;7.38;5.60;;;;;;;;;;5086666;28;20261;-47
2021/09/10 09:01:48;;;;;;;6.60;5.43;;;;;;;;;;5098381;28;20182;-47
2021/09/10 09:04:14;;;;;;;6.07;5.47;;;;;;;;;;5098514;28;20565;-47
2021/09/10 09:06:40;;;;;;;5.82;5.32;;;;;;;;;;5097354;28;20192;-47
2021/09/10 09:09:06;;;;;;;5.82;5.32;;;;;;;;;;5087692;28;20175;-46
2021/09/10 09:11:32;;;;;;;6.47;5.88;;;;;;;;;;5078240;28;20170;-47
2021/09/10 09:14:02;;;;;;;6.13;5.20;;;;;;;;;;5085545;28;20178;-47
2021/09/10 09:16:30;;;;;;;6.47;5.50;;;;;;;;;;5083482;28;20174;-47
2021/09/10 09:19:06;;;;;;;6.63;5.97;;;;;;;;;;5089029;28;20186;-47
2021/09/10 09:21:37;;;;;;;6.07;5.47;;;;;;;;;;5077831;28;20549;-46
2021/09/10 09:24:14;;;;;;;8.93;5.80;;;;;;;;;;5084462;28;20599;-47
2021/09/10 09:26:44;;;;;;;7.60;6.00;;;;;;;;;;5098146;28;20174;-47
2021/09/10 09:29:11;;;;;;;6.55;5.88;;;;;;;;;;5092084;28;20562;-47
2021/09/10 09:31:38;;;;;;;6.18;5.60;;;;;;;;;;5097940;28;20734;-46
2021/09/10 09:34:05;;;;;;;8.43;6.60;;;;;;;;;;5097249;28;20178;-47
2021/09/10 09:36:31;;;;;;;6.25;5.53;;;;;;;;;;5097833;28;20200;-47
2021/09/10 09:38:58;;;;;;;6.97;6.28;;;;;;;;;;5096878;28;20197;-47
2021/09/10 09:41:24;;;;;;;5.95;5.35;;;;;;;;;;5118441;28;20165;-47
2021/09/10 09:43:52;;;;;;;6.05;5.45;;;;;;;;;;5107130;28;20587;-47
2021/09/10 09:46:19;;;;;;;6.50;5.90;;;;;;;;;;5077158;28;20178;-47
2021/09/10 09:48:47;;;;;;;5.65;5.13;;;;;;;;;;5082830;28;20186;-47
2021/09/10 09:51:15;;;;;;;6.70;5.95;;;;;;;;;;5097407;28;20181;-47
2021/09/10 09:53:42;;;;;;;5.53;5.03;;;;;;;;;;5086964;28;20174;-47
2021/09/10 09:56:08;;;;;;;6.03;5.53;;;;;;;;;;5078047;28;20247;-47
2021/09/10 09:58:34;;;;;;;6.72;5.78;;;;;;;;;;5092813;28;20631;-47
2021/09/10 10:01:01;;;;;;;7.57;6.05;;;;;;;;;;5083502;28;20557;-47
2021/09/10 10:03:27;;;;;;;6.68;5.97;;;;;;;;;;5087936;28;20178;-47
2021/09/10 10:06:02;;;;;;;5.90;5.40;;;;;;;;;;5093341;28;20171;-47
2021/09/10 10:08:39;;;;;;;6.22;5.63;;;;;;;;;;5076475;28;20178;-47
2021/09/10 10:11:08;;;;;;;6.68;6.07;;;;;;;;;;5081270;28;20170;-47
2021/09/10 10:13:35;;;;;;;6.22;5.63;;;;;;;;;;5087161;28;20234;-46
2021/09/10 10:16:01;;;;;;;7.75;6.03;;;;;;;;;;5097184;28;20176;-47
2021/09/10 10:18:41;;;;;;;6.32;5.50;;;;;;;;;;5093142;28;20202;-47
2021/09/10 10:21:10;;;;;;;6.22;5.63;;;;;;;;;;5084431;28;20444;-47
2021/09/10 10:23:42;;;;;;;6.70;6.10;;;;;;;;;;5096837;28;20174;-47
2021/09/10 10:26:10;;;;;;;6.20;5.60;;;;;;;;;;5077955;28;20190;-47
2021/09/10 10:28:46;;;;;;;6.72;5.50;;;;;;;;;;5082448;28;20177;-47
2021/09/10 10:31:12;;;;;;;6.13;5.50;;;;;;;;;;5096581;28;20174;-47
2021/09/10 10:33:48;;;;;;;6.38;5.72;;;;;;;;;;5096594;28;20227;-47
2021/09/10 10:36:30;;;;;;;6.53;5.35;;;;;;;;;;5096492;28;20173;-47
2021/09/10 10:39:08;;;;;;;6.88;5.85;;;;;;;;;;5094506;28;20216;-47
2021/09/10 10:41:48;;;;;;;6.95;5.90;;;;;;;;;;5096183;28;20204;-47
2021/09/10 10:44:33;;;;;;;6.57;5.88;;;;;;;;;;5096142;28;20192;-47
2021/09/10 10:47:09;;;;;;;5.93;5.40;;;;;;;;;;5096070;28;20261;-47
2021/09/10 10:49:39;;;;;;;6.25;5.65;;;;;;;;;;5089109;28;20174;-47
2021/09/10 10:52:24;;;;;;;6.22;5.68;;;;;;;;;;5083741;28;20239;-47
2021/09/10 10:55:08;;;;;;;6.38;5.78;;;;;;;;;;5077368;28;20205;-47
2021/09/10 10:57:37;;;;;;;5.63;5.15;;;;;;;;;;5090059;28;20198;-47
2021/09/10 11:00:23;;;;;;;6.75;5.80;;;;;;;;;;5091365;28;20569;-47
2021/09/10 11:02:49;;;;;;;6.65;5.97;;;;;;;;;;5096175;28;20205;-47
2021/09/10 11:05:17;;;;;;;6.60;5.90;;;;;;;;;;5092330;28;20202;-47
2021/09/10 11:07:44;;;;;;;6.80;6.10;;;;;;;;;;5081542;28;20178;-47
2021/09/10 11:10:12;;;;;;;6.20;5.60;;;;;;;;;;5085531;28;20182;-47
2021/09/10 11:12:39;;;;;;;6.75;5.85;;;;;;;;;;5094184;28;20212;-47
2021/09/10 11:15:19;;;;;;;6.35;5.80;;;;;;;;;;5093484;28;20257;-47
2021/09/10 11:17:52;;;;;;;6.28;5.68;;;;;;;;;;5093503;28;20217;-47
2021/09/10 11:20:24;;;;;;;6.40;5.80;;;;;;;;;;5094912;28;20169;-47
2021/09/10 11:22:50;;;;;;;6.10;5.50;;;;;;;;;;5091266;28;20162;-47
2021/09/10 11:25:16;;;;;;;7.25;6.43;;;;;;;;;;5075494;28;20300;-47
2021/09/10 11:27:42;;;;;;;6.60;5.90;;;;;;;;;;5079548;28;20680;-47
2021/09/10 11:30:12;;;;;;;7.15;5.30;;;;;;;;;;5093021;28;20255;-47
2021/09/10 11:32:38;;;;;;;6.53;5.90;;;;;;;;;;5087922;28;20178;-47
2021/09/10 11:35:18;;;;;;;6.18;5.57;;;;;;;;;;5092430;28;20477;-47
2021/09/10 11:37:51;;;;;;;6.45;5.85;;;;;;;;;;5094403;28;20209;-47
2021/09/10 11:40:27;;;;;;;6.07;5.57;;;;;;;;;;5094621;28;20192;-47
2021/09/10 11:43:01;;;;;;;6.03;5.43;;;;;;;;;;5095367;28;20500;-47
2021/09/10 11:45:30;;;;;;;6.05;5.55;;;;;;;;;;5082200;28;20544;-47
2021/09/10 11:47:56;;;;;;;6.15;5.57;;;;;;;;;;5094926;28;20235;-47
2021/09/10 11:50:22;;;;;;;5.90;5.30;;;;;;;;;;5093294;28;20178;-47
2021/09/10 11:52:48;;;;;;;7.15;5.65;;;;;;;;;;5095327;28;20256;-47
2021/09/10 11:55:15;;;;;;;6.07;5.43;;;;;;;;;;5078233;28;20563;-47
2021/09/10 11:57:42;;;;;;;5.63;5.05;;;;;;;;;;5084179;28;20194;-47
2021/09/10 12:00:22;;;;;;;5.70;5.20;;;;;;;;;;5080429;28;20235;-47
2021/09/10 12:02:59;;;;;;;5.80;5.30;;;;;;;;;;5090373;28;20182;-47
2021/09/10 12:05:28;;;;;;;5.88;5.30;;;;;;;;;;5095211;28;20472;-47
2021/09/10 12:07:54;;;;;;;6.05;5.55;;;;;;;;;;5094071;28;20170;-47
2021/09/10 12:10:33;;;;;;;6.63;5.53;;;;;;;;;;5092989;28;20181;-48
2021/09/10 12:13:15;;;;;;;5.32;4.93;;;;;;;;;;5095111;28;20180;-47
2021/09/10 12:15:42;;;;;;;11.13;5.28;;;;;;;;;;5074729;28;20186;-47
2021/09/10 12:18:09;;;;;;;5.63;5.13;;;;;;;;;;5081639;28;20221;-47
2021/09/10 12:20:35;;;;;;;5.70;5.13;;;;;;;;;;5076625;28;20188;-47
2021/09/10 12:23:02;;;;;;;6.00;5.50;;;;;;;;;;5074709;28;20182;-47
2021/09/10 12:25:47;;;;;;;5.93;5.32;;;;;;;;;;5074634;28;20224;-47
2021/09/10 12:28:15;;;;;;;5.75;5.25;;;;;;;;;;5074157;28;20430;-47
2021/09/10 12:31:01;;;;;;;5.78;5.18;;;;;;;;;;5092685;28;20181;-47
2021/09/10 12:33:27;;;;;;;5.93;5.43;;;;;;;;;;5094585;28;20173;-47
2021/09/10 12:35:55;;;;;;;6.78;5.20;;;;;;;;;;5094245;28;20572;-47
2021/09/10 12:38:22;;;;;;;6.13;5.53;;;;;;;;;;5092463;28;20242;-47
2021/09/10 12:40:50;;;;;;;5.88;5.38;;;;;;;;;;5093014;28;20256;-47
2021/09/10 12:43:16;;;;;;;6.05;5.55;;;;;;;;;;5093757;28;20624;-47
2021/09/10 12:45:43;;;;;;;5.88;5.35;;;;;;;;;;5094554;28;20174;-47
2021/09/10 12:48:09;;;;;;;6.00;5.40;;;;;;;;;;5093826;28;20257;-47
2021/09/10 12:50:36;;;;;;;5.80;5.20;;;;;;;;;;5080780;28;20174;-47
2021/09/10 12:53:02;;;;;;;5.25;4.85;;;;;;;;;;5093481;28;20620;-47
2021/09/10 12:55:28;;;;;;;6.53;5.85;;;;;;;;;;5094530;28;20584;-47
2021/09/10 12:57:54;;;;;;;6.57;5.97;;;;;;;;;;5091218;28;20247;-47
2021/09/10 13:00:20;;;;;;;5.28;4.80;;;;;;;;;;5078538;28;20186;-47
2021/09/10 13:02:46;;;;;;;5.75;5.25;;;;;;;;;;5082596;28;20608;-47
2021/09/10 13:05:12;;;;;;;5.57;5.07;;;;;;;;;;5094479;28;20253;-47
2021/09/10 13:07:38;;;;;;;5.78;5.28;;;;;;;;;;5093713;28;20174;-47
2021/09/10 13:10:05;;;;;;;5.82;5.32;;;;;;;;;;5081889;28;20231;-47
2021/09/10 13:12:31;;;;;;;5.53;5.03;;;;;;;;;;5083782;28;20170;-47
2021/09/10 13:14:57;;;;;;;6.60;5.60;;;;;;;;;;5083062;28;20206;-47
2021/09/10 13:17:24;;;;;;;7.47;5.07;;;;;;;;;;5093524;28;20592;-47
2021/09/10 13:19:51;;;;;;;7.70;5.57;;;;;;;;;;5084314;28;20221;-47
2021/09/10 13:22:17;;;;;;;8.43;5.13;;;;;;;;;;5073511;28;20175;-47
2021/09/10 13:24:44;;;;;;;5.70;4.97;;;;;;;;;;5086239;28;20184;-47
2021/09/10 13:27:10;;;;;;;10.05;5.68;;;;;;;;;;5093643;28;20684;-47
2021/09/10 13:29:36;;;;;;;7.90;5.78;;;;;;;;;;5082437;28;20178;-47
2021/09/10 13:32:03;;;;;;;7.30;5.80;;;;;;;;;;5073856;28;20205;-47
2021/09/10 13:34:29;;;;;;;6.15;5.47;;;;;;;;;;5074106;28;20181;-47
2021/09/10 13:36:55;;;;;;;6.35;5.10;;;;;;;;;;5079949;28;20178;-47
2021/09/10 13:39:21;;;;;;;6.38;5.78;;;;;;;;;;5093212;28;20182;-47
2021/09/10 13:41:47;;;;;;;6.60;5.85;;;;;;;;;;5093459;28;20180;-47
2021/09/10 13:44:13;;;;;;;6.10;5.47;;;;;;;;;;5088237;28;20248;-47
2021/09/10 13:46:40;;;;;;;6.90;5.28;;;;;;;;;;5077501;28;20170;-47
2021/09/10 13:49:07;;;;;;;6.15;5.55;;;;;;;;;;5083481;28;20261;-47
2021/09/10 13:51:33;;;;;;;7.53;6.18;;;;;;;;;;5097801;28;20161;-47
2021/09/10 13:53:59;;;;;;;6.20;5.65;;;;;;;;;;5095939;28;20186;-47
2021/09/10 13:56:26;;;;;;;8.48;5.80;;;;;;;;;;5097040;28;20263;-47
2021/09/10 13:58:52;;;;;;;5.72;5.00;;;;;;;;;;5096382;28;20271;-47
2021/09/10 14:01:18;;;;;;;6.07;5.47;;;;;;;;;;5097174;28;20173;-47
2021/09/10 14:03:44;;;;;;;6.20;5.63;;;;;;;;;;5097578;28;20166;-47
2021/09/10 14:06:10;;;;;;;5.97;5.43;;;;;;;;;;5097082;28;20215;-47
2021/09/10 14:08:37;;;;;;;6.68;6.03;;;;;;;;;;5095265;28;20206;-48
2021/09/10 14:11:03;;;;;;;7.03;6.32;;;;;;;;;;5096301;28;20501;-47
2021/09/10 14:13:29;;;;;;;7.45;6.00;;;;;;;;;;5096838;28;20174;-47
2021/09/10 14:15:55;;;;;;;7.53;5.72;;;;;;;;;;5097241;28;20256;-47
2021/09/10 14:18:21;;;;;;;7.00;6.10;;;;;;;;;;5095075;28;20304;-48
2021/09/10 14:20:47;;;;;;;7.13;5.45;;;;;;;;;;5097045;28;20174;-47
2021/09/10 14:23:13;;;;;;;6.57;5.88;;;;;;;;;;5096781;28;20177;-47
2021/09/10 14:25:39;;;;;;;7.50;5.60;;;;;;;;;;5096746;28;20764;-47
2021/09/10 14:28:05;;;;;;;6.45;5.85;;;;;;;;;;5096194;28;20460;-47
2021/09/10 14:30:31;;;;;;;6.05;5.45;;;;;;;;;;5090293;28;20528;-47
2021/09/10 14:32:57;;;;;;;6.35;5.65;;;;;;;;;;5097017;28;20170;-47
2021/09/10 14:35:23;;;;;;;6.15;5.55;;;;;;;;;;5096560;28;20203;-47
2021/09/10 14:37:51;;;;;;;6.07;5.53;;;;;;;;;;5095439;28;20288;-47
2021/09/10 14:40:17;;;;;;;6.35;5.85;;;;;;;;;;5096237;28;20170;-47